createdAt,value
2019-04-26T00:00:49.223Z,1.67
2019-04-26T00:03:19.096Z,1.67
2019-04-26T00:05:47.345Z,1.22
2019-04-26T00:08:15.787Z,1.05
2019-04-26T00:10:48.925Z,1.30
2019-04-26T00:13:35.686Z,1.15
2019-04-26T00:16:22.435Z,1.25
2019-04-26T00:18:50.793Z,1.75
2019-04-26T00:21:19.039Z,1.82
2019-04-26T00:23:47.561Z,3.60
2019-04-26T00:26:16.077Z,2.45
2019-04-26T00:28:44.318Z,1.10
2019-04-26T00:31:12.881Z,1.20
2019-04-26T00:33:41.098Z,1.65
2019-04-26T00:36:09.353Z,2.20
2019-04-26T00:38:37.575Z,1.72
2019-04-26T00:41:05.879Z,3.47
2019-04-26T00:43:34.249Z,1.20
2019-04-26T00:46:02.496Z,1.98
2019-04-26T00:48:31.105Z,1.95
2019-04-26T00:51:00.137Z,1.90
2019-04-26T00:53:28.677Z,1.57
2019-04-26T00:55:56.952Z,1.42
2019-04-26T00:58:25.173Z,1.50
2019-04-26T01:00:54.093Z,1.10
2019-04-26T01:03:22.826Z,1.30
2019-04-26T01:05:59.923Z,1.50
2019-04-26T01:08:21.315Z,1.60
2019-04-26T01:10:49.554Z,1.52
2019-04-26T01:13:17.931Z,1.35
2019-04-26T01:15:46.240Z,2.25
2019-04-26T01:18:14.460Z,1.90
2019-04-26T01:20:42.717Z,1.12
2019-04-26T01:23:11.774Z,1.57
2019-04-26T01:25:46.276Z,1.47
2019-04-26T01:28:18.484Z,1.47
2019-04-26T01:30:48.041Z,3.60
2019-04-26T01:33:16.289Z,2.00
2019-04-26T01:35:44.538Z,1.72
2019-04-26T01:38:14.485Z,2.37
2019-04-26T01:40:44.365Z,1.60
2019-04-26T01:43:21.669Z,1.80
2019-04-26T01:46:11.023Z,1.52
2019-04-26T01:48:54.557Z,2.35
2019-04-26T01:51:35.094Z,1.12
2019-04-26T01:54:03.347Z,1.32
2019-04-26T01:56:32.939Z,2.45
2019-04-26T01:59:01.177Z,1.70
2019-04-26T02:01:49.418Z,3.77
2019-04-26T02:04:17.909Z,3.20
2019-04-26T02:06:46.124Z,2.65
2019-04-26T02:09:14.749Z,1.30
2019-04-26T02:11:42.987Z,1.65
2019-04-26T02:14:11.233Z,3.87
2019-04-26T02:16:39.500Z,1.67
2019-04-26T02:19:07.750Z,1.45
2019-04-26T02:21:37.774Z,2.08
2019-04-26T02:26:45.708Z,2.00
2019-04-26T02:29:17.449Z,2.12
2019-04-26T02:31:48.170Z,1.60
2019-04-26T02:34:16.431Z,1.70
2019-04-26T02:36:57.262Z,1.37
2019-04-26T02:39:19.874Z,1.45
2019-04-26T02:41:49.552Z,2.08
2019-04-26T02:44:21.784Z,2.60
2019-04-26T02:46:53.389Z,1.35
2019-04-26T02:49:30.798Z,1.80
2019-04-26T02:52:02.421Z,1.90
2019-04-26T02:54:45.894Z,1.90
2019-04-26T02:57:19.965Z,1.92
2019-04-26T02:59:48.223Z,2.55
2019-04-26T03:02:20.761Z,1.92
2019-04-26T03:04:49.008Z,2.00
2019-04-26T03:07:33.886Z,1.77
2019-04-26T03:10:02.368Z,2.40
2019-04-26T03:12:35.469Z,2.00
2019-04-26T03:15:13.704Z,1.55
2019-04-26T03:17:46.513Z,3.17
2019-04-26T03:20:19.687Z,1.95
2019-04-26T03:22:56.895Z,1.82
2019-04-26T03:25:48.247Z,2.05
2019-04-26T03:28:37.657Z,2.25
2019-04-26T03:31:09.106Z,2.17
2019-04-26T03:33:49.946Z,1.47
2019-04-26T03:36:21.046Z,1.50
2019-04-26T03:39:06.217Z,3.05
2019-04-26T03:42:09.620Z,2.17
2019-04-26T03:44:57.721Z,2.00
2019-04-26T03:47:34.191Z,1.82
2019-04-26T03:50:13.541Z,5.22
2019-04-26T03:52:47.863Z,1.40
2019-04-26T03:55:29.981Z,3.77
2019-04-26T03:58:30.580Z,2.72
2019-04-26T04:01:00.485Z,1.67
2019-04-26T04:03:32.877Z,2.27
2019-04-26T04:06:02.212Z,1.75
2019-04-26T04:08:48.568Z,1.80
2019-04-26T04:11:22.052Z,2.65
2019-04-26T04:14:16.137Z,3.25
2019-04-26T04:17:17.281Z,3.17
2019-04-26T04:19:56.213Z,2.45
2019-04-26T04:22:24.524Z,2.25
2019-04-26T04:24:56.009Z,3.17
2019-04-26T04:27:27.485Z,2.75
2019-04-26T04:29:59.023Z,2.65
2019-04-26T04:32:49.882Z,2.58
2019-04-26T04:35:19.121Z,2.02
2019-04-26T04:38:05.925Z,2.50
2019-04-26T04:40:28.525Z,3.58
2019-04-26T04:43:04.595Z,2.15
2019-04-26T04:45:53.117Z,2.45
2019-04-26T04:48:29.097Z,2.42
2019-04-26T04:51:06.798Z,3.95
2019-04-26T04:53:59.351Z,3.10
2019-04-26T04:56:33.510Z,2.77
2019-04-26T04:59:05.005Z,3.40
2019-04-26T05:01:53.177Z,3.65
2019-04-26T05:04:36.652Z,3.08
2019-04-26T05:07:15.496Z,2.08
2019-04-26T05:09:49.693Z,3.45
2019-04-26T05:12:26.872Z,2.60
2019-04-26T05:15:21.090Z,2.37
2019-04-26T05:17:58.595Z,2.75
2019-04-26T05:20:32.665Z,3.33
2019-04-26T05:23:10.522Z,3.35
2019-04-26T05:25:58.578Z,3.50
2019-04-26T05:28:37.841Z,2.72
2019-04-26T05:31:28.651Z,3.67
2019-04-26T05:34:18.018Z,3.85
2019-04-26T05:37:04.264Z,3.67
2019-04-26T05:39:51.222Z,2.52
2019-04-26T05:42:36.256Z,2.58
2019-04-26T05:45:15.085Z,3.52
2019-04-26T05:48:11.215Z,2.60
2019-04-26T05:51:11.398Z,2.67
2019-04-26T05:53:55.144Z,2.40
2019-04-26T05:56:36.848Z,2.00
2019-04-26T05:59:10.694Z,2.10
2019-04-26T06:01:53.311Z,3.30
2019-04-26T06:04:50.837Z,2.70
2019-04-26T06:07:56.313Z,2.37
2019-04-26T06:10:29.008Z,3.98
2019-04-26T06:13:23.379Z,3.72
2019-04-26T06:15:58.586Z,2.90
2019-04-26T06:18:34.501Z,2.75
2019-04-26T06:21:14.697Z,3.05
2019-04-26T06:24:01.991Z,4.13
2019-04-26T06:27:14.344Z,3.50
2019-04-26T06:29:46.052Z,3.62
2019-04-26T06:32:41.906Z,2.50
2019-04-26T06:35:16.497Z,5.03
2019-04-26T06:38:43.507Z,2.58
2019-04-26T06:41:21.666Z,4.07
2019-04-26T06:43:56.798Z,2.92
2019-04-26T06:46:47.499Z,5.20
2019-04-26T06:49:39.501Z,3.80
2019-04-26T06:52:17.069Z,3.10
2019-04-26T06:55:09.749Z,2.80
2019-04-26T06:58:07.267Z,4.40
2019-04-26T07:00:46.621Z,3.00
2019-04-26T07:03:21.072Z,5.12
2019-04-26T07:05:58.936Z,3.65
2019-04-26T07:08:57.128Z,2.80
2019-04-26T07:11:34.923Z,3.17
2019-04-26T07:14:06.880Z,3.22
2019-04-26T07:17:00.645Z,4.83
2019-04-26T07:20:13.192Z,3.27
2019-04-26T07:23:15.130Z,3.15
2019-04-26T07:26:08.950Z,2.80
2019-04-26T07:29:03.161Z,3.90
2019-04-26T07:31:46.698Z,3.50
2019-04-26T07:34:43.423Z,4.53
2019-04-26T07:37:37.351Z,3.65
2019-04-26T07:40:32.638Z,3.55
2019-04-26T07:43:22.955Z,2.77
2019-04-26T07:46:18.428Z,3.20
2019-04-26T07:48:58.544Z,1.47
2019-04-26T07:51:59.061Z,2.05
2019-04-26T07:54:47.209Z,3.77
2019-04-26T07:57:48.377Z,2.92
2019-04-26T08:00:29.738Z,1.10
2019-04-26T08:03:20.775Z,1.52
2019-04-26T08:06:01.207Z,2.10
2019-04-26T08:08:35.212Z,2.08
2019-04-26T08:11:20.952Z,1.40
2019-04-26T08:14:01.474Z,1.00
2019-04-26T08:16:31.397Z,3.00
2019-04-26T08:19:05.745Z,1.87
2019-04-26T08:21:36.233Z,1.17
2019-04-26T08:24:10.001Z,2.10
2019-04-26T08:26:38.420Z,2.55
2019-04-26T08:29:08.411Z,2.45
2019-04-26T08:31:37.183Z,1.23
2019-04-26T08:34:08.574Z,1.17
2019-04-26T08:36:39.179Z,1.60
2019-04-26T08:39:18.398Z,1.50
2019-04-26T08:41:48.306Z,1.00
2019-04-26T08:44:21.424Z,1.60
2019-04-26T08:46:51.340Z,2.30
2019-04-26T08:49:39.062Z,2.80
2019-04-26T08:52:14.324Z,2.95
2019-04-26T08:54:39.310Z,1.60
2019-04-26T08:57:08.323Z,1.95
2019-04-26T08:59:42.304Z,1.98
2019-04-26T09:02:30.826Z,1.70
2019-04-26T09:05:06.180Z,1.98
2019-04-26T09:07:38.425Z,1.57
2019-04-26T09:10:11.359Z,2.50
2019-04-26T09:12:37.689Z,1.70
2019-04-26T09:15:08.006Z,1.75
2019-04-26T09:17:36.282Z,1.77
2019-04-26T09:20:07.852Z,1.20
2019-04-26T09:25:15.156Z,1.72
2019-04-26T09:27:45.061Z,1.67
2019-04-26T09:30:34.169Z,1.37
2019-04-26T09:33:04.534Z,3.27
2019-04-26T09:35:32.820Z,1.62
2019-04-26T09:38:01.077Z,2.00
2019-04-26T09:40:29.318Z,1.50
2019-04-26T09:43:02.668Z,1.90
2019-04-26T09:45:41.873Z,1.52
2019-04-26T09:48:17.463Z,2.17
2019-04-26T09:50:50.036Z,2.45
2019-04-26T09:53:18.965Z,2.60
2019-04-26T09:55:47.209Z,1.32
2019-04-26T09:58:15.457Z,0.95
2019-04-26T10:00:44.106Z,1.52
2019-04-26T10:03:13.799Z,2.07
2019-04-26T10:05:42.035Z,2.12
2019-04-26T10:08:13.076Z,2.35
2019-04-26T10:10:40.245Z,2.77
2019-04-26T10:13:15.059Z,1.32
2019-04-26T10:15:50.561Z,1.37
2019-04-26T10:18:24.286Z,0.78
2019-04-26T10:20:50.825Z,3.85
2019-04-26T10:23:19.115Z,2.47
2019-04-26T10:25:51.745Z,1.52
2019-04-26T10:28:17.330Z,1.40
2019-04-26T10:30:45.585Z,1.98
2019-04-26T10:33:13.974Z,2.08
2019-04-26T10:35:42.281Z,1.75
2019-04-26T10:38:10.562Z,1.10
2019-04-26T10:40:38.816Z,1.20
2019-04-26T10:43:08.048Z,1.52
2019-04-26T10:45:36.374Z,1.55
2019-04-26T10:48:04.938Z,1.75
2019-04-26T10:50:34.407Z,2.22
2019-04-26T10:53:06.838Z,1.12
2019-04-26T10:55:39.331Z,0.53
2019-04-26T10:58:20.964Z,0.88
2019-04-26T11:00:56.601Z,1.20
2019-04-26T11:03:24.958Z,1.57
2019-04-26T11:05:53.619Z,1.07
2019-04-26T11:08:24.014Z,0.90
2019-04-26T11:10:52.292Z,1.30
2019-04-26T11:13:20.531Z,1.72
2019-04-26T11:15:48.874Z,1.77
2019-04-26T11:18:19.912Z,1.27
2019-04-26T11:20:47.119Z,1.65
2019-04-26T11:23:15.412Z,1.62
2019-04-26T11:25:43.678Z,1.27
2019-04-26T11:28:11.913Z,2.10
2019-04-26T11:30:40.176Z,3.15
2019-04-26T11:33:11.066Z,1.17
2019-04-26T11:35:38.380Z,3.33
2019-04-26T11:38:06.650Z,1.57
2019-04-26T11:40:34.963Z,2.27
2019-04-26T11:43:03.377Z,2.87
2019-04-26T11:45:31.630Z,1.07
2019-04-26T11:47:59.865Z,1.32
2019-04-26T11:50:28.117Z,1.70
2019-04-26T11:52:56.375Z,1.80
2019-04-26T11:55:25.355Z,2.05
2019-04-26T11:57:54.598Z,2.37
2019-04-26T12:00:27.367Z,1.57
2019-04-26T12:02:54.457Z,1.87
2019-04-26T12:05:27.374Z,1.12
2019-04-26T12:08:00.215Z,1.92
2019-04-26T12:10:28.504Z,1.50
2019-04-26T12:13:05.570Z,0.90
2019-04-26T12:15:30.367Z,1.47
2019-04-26T12:17:58.850Z,3.37
2019-04-26T12:20:28.161Z,2.02
2019-04-26T12:22:56.711Z,2.27
2019-04-26T12:25:24.950Z,1.45
2019-04-26T12:27:53.528Z,1.67
2019-04-26T12:30:26.359Z,1.55
2019-04-26T12:32:52.012Z,5.55
2019-04-26T12:35:20.237Z,3.62
2019-04-26T12:37:50.690Z,4.33
2019-04-26T12:40:19.498Z,5.17
2019-04-26T12:42:48.378Z,3.25
2019-04-26T12:45:24.330Z,2.80
2019-04-26T12:47:56.913Z,1.65
2019-04-26T12:50:25.214Z,2.25
2019-04-26T12:52:55.766Z,0.80
2019-04-26T12:55:23.427Z,1.67
2019-04-26T12:57:51.684Z,1.40
2019-04-26T13:00:21.619Z,1.62
2019-04-26T13:02:50.192Z,2.08
2019-04-26T13:05:20.584Z,1.67
2019-04-26T13:07:53.150Z,2.27
2019-04-26T13:10:36.802Z,2.62
2019-04-26T13:13:13.037Z,1.07
2019-04-26T13:15:54.141Z,1.47
2019-04-26T13:20:49.965Z,2.20
2019-04-26T13:23:18.251Z,2.22
2019-04-26T13:25:46.498Z,0.98
2019-04-26T13:28:15.695Z,1.20
2019-04-26T13:30:44.963Z,1.12
2019-04-26T13:33:13.646Z,1.95
2019-04-26T13:35:46.566Z,2.25
2019-04-26T13:38:11.868Z,1.57
2019-04-26T13:40:40.300Z,0.88
2019-04-26T13:43:08.668Z,1.70
2019-04-26T13:45:41.077Z,1.35
2019-04-26T13:48:26.201Z,1.65
2019-04-26T13:50:57.288Z,1.35
2019-04-26T13:53:26.928Z,0.98
2019-04-26T13:55:58.245Z,0.98
2019-04-26T13:58:25.723Z,1.90
2019-04-26T14:00:54.054Z,1.55
2019-04-26T14:03:22.366Z,0.37
2019-04-26T14:05:50.602Z,2.58
2019-04-26T14:08:18.834Z,0.82
2019-04-26T14:10:49.896Z,1.27
2019-04-26T14:13:20.757Z,0.70
2019-04-26T14:15:51.642Z,2.05
2019-04-26T14:18:16.998Z,0.90
2019-04-26T14:20:45.313Z,1.67
2019-04-26T14:23:33.565Z,1.50
2019-04-26T14:26:18.529Z,1.87
2019-04-26T14:28:46.858Z,1.87
2019-04-26T14:31:16.459Z,1.00
2019-04-26T14:33:45.102Z,1.20
2019-04-26T14:36:17.880Z,1.37
2019-04-26T14:38:43.373Z,0.60
2019-04-26T14:41:13.450Z,0.65
2019-04-26T14:43:41.711Z,1.15
2019-04-26T14:46:10.346Z,1.00
2019-04-26T14:48:40.586Z,0.45
2019-04-26T14:51:12.517Z,3.72
2019-04-26T14:53:39.885Z,1.02
2019-04-26T14:56:08.139Z,0.78
2019-04-26T14:58:36.373Z,2.58
2019-04-26T15:01:06.306Z,1.42
2019-04-26T15:03:43.102Z,1.80
2019-04-26T15:06:16.788Z,1.10
2019-04-26T15:08:45.273Z,1.17
2019-04-26T15:11:13.164Z,1.92
2019-04-26T15:13:43.806Z,2.58
2019-04-26T15:16:12.348Z,1.20
2019-04-26T15:18:42.636Z,1.02
2019-04-26T15:21:12.801Z,1.47
2019-04-26T15:23:41.307Z,3.15
2019-04-26T15:26:09.555Z,2.60
2019-04-26T15:28:37.797Z,1.52
2019-04-26T15:31:06.067Z,2.50
2019-04-26T15:33:35.906Z,1.25
2019-04-26T15:36:06.265Z,1.42
2019-04-26T15:38:41.069Z,1.15
2019-04-26T15:41:11.495Z,0.98
2019-04-26T15:43:46.738Z,0.57
2019-04-26T15:46:18.154Z,2.22
2019-04-26T15:49:05.168Z,2.12
2019-04-26T15:51:34.948Z,2.27
2019-04-26T15:54:03.197Z,0.93
2019-04-26T15:56:32.457Z,3.58
2019-04-26T15:59:02.534Z,4.10
2019-04-26T16:01:32.371Z,1.57
2019-04-26T16:04:05.605Z,1.40
2019-04-26T16:06:32.248Z,0.75
2019-04-26T16:09:02.216Z,1.47
2019-04-26T16:11:30.624Z,2.83
2019-04-26T16:13:58.899Z,0.98
2019-04-26T16:16:29.098Z,1.57
2019-04-26T16:18:57.443Z,2.42
2019-04-26T16:21:25.873Z,2.47
2019-04-26T16:23:55.275Z,1.30
2019-04-26T16:26:23.824Z,2.10
2019-04-26T16:29:05.798Z,4.40
2019-04-26T16:31:35.677Z,1.77
2019-04-26T16:34:10.657Z,0.93
2019-04-26T16:36:42.216Z,1.37
2019-04-26T16:39:12.921Z,1.32
2019-04-26T16:41:42.096Z,1.55
2019-04-26T16:44:10.582Z,2.85
2019-04-26T16:46:38.821Z,1.12
2019-04-26T16:49:11.418Z,1.25
2019-04-26T16:51:37.041Z,0.98
2019-04-26T16:54:10.062Z,2.22
2019-04-26T16:56:36.021Z,2.85
2019-04-26T16:59:04.397Z,2.20
2019-04-26T17:01:33.397Z,1.52
2019-04-26T17:04:04.707Z,3.65
2019-04-26T17:06:31.821Z,1.55
2019-04-26T17:09:01.724Z,1.30
2019-04-26T17:11:30.228Z,1.17
2019-04-26T17:14:04.314Z,1.10
2019-04-26T17:16:36.911Z,1.27
2019-04-26T17:19:00.867Z,3.58
2019-04-26T17:21:30.748Z,2.77
2019-04-26T17:24:18.928Z,2.25
2019-04-26T17:26:51.495Z,2.37
2019-04-26T17:29:19.750Z,1.60
2019-04-26T17:31:48.002Z,1.30
2019-04-26T17:34:16.249Z,3.22
2019-04-26T17:36:46.501Z,2.42
2019-04-26T17:39:17.330Z,2.07
2019-04-26T17:41:50.754Z,0.95
2019-04-26T17:44:20.612Z,1.57
2019-04-26T17:46:48.953Z,1.35
2019-04-26T17:49:16.195Z,0.95
2019-04-26T17:51:44.558Z,2.65
2019-04-26T17:54:41.083Z,1.02
2019-04-26T17:56:42.862Z,4.12
2019-04-26T17:59:30.205Z,2.33
2019-04-26T18:01:47.102Z,1.10
2019-04-26T18:04:11.335Z,3.27
2019-04-26T18:06:40.316Z,4.90
2019-04-26T18:09:08.659Z,1.42
2019-04-26T18:11:36.928Z,2.22
2019-04-26T18:14:07.008Z,1.95
2019-04-26T18:16:36.862Z,1.47
2019-04-26T18:19:26.283Z,3.87
2019-04-26T18:21:59.585Z,3.05
2019-04-26T18:24:27.703Z,4.62
2019-04-26T18:26:59.196Z,1.70
2019-04-26T18:29:29.352Z,1.98
2019-04-26T18:31:54.682Z,2.77
2019-04-26T18:34:23.218Z,2.77
2019-04-26T18:36:51.512Z,1.02
2019-04-26T18:39:22.907Z,2.72
2019-04-26T18:41:49.810Z,5.30
2019-04-26T18:44:18.044Z,5.37
2019-04-26T18:46:47.951Z,1.67
2019-04-26T18:49:22.506Z,2.42
2019-04-26T18:51:48.267Z,1.65
2019-04-26T18:54:18.030Z,3.25
2019-04-26T18:56:47.977Z,2.20
2019-04-26T18:59:16.217Z,3.58
2019-04-26T19:01:44.606Z,2.75
2019-04-26T19:04:15.340Z,1.60
2019-04-26T19:06:43.476Z,2.02
2019-04-26T19:09:12.224Z,3.30
2019-04-26T19:11:42.057Z,2.20
2019-04-26T19:14:14.987Z,2.77
2019-04-26T19:17:02.202Z,2.85
2019-04-26T19:19:37.849Z,2.40
2019-04-26T19:22:09.550Z,2.67
2019-04-26T19:24:38.694Z,4.17
2019-04-26T19:27:07.125Z,2.50
2019-04-26T19:29:36.221Z,3.25
2019-04-26T19:32:04.890Z,2.03
2019-04-26T19:34:33.151Z,3.35
2019-04-26T19:37:03.265Z,2.92
2019-04-26T19:39:33.756Z,2.80
2019-04-26T19:42:02.513Z,2.72
2019-04-26T19:44:31.617Z,2.83
2019-04-26T19:47:06.642Z,2.60
2019-04-26T19:49:53.989Z,2.52
2019-04-26T19:52:39.720Z,2.10
2019-04-26T19:55:11.447Z,3.20
2019-04-26T19:57:58.467Z,1.87
2019-04-26T20:00:26.752Z,2.50
2019-04-26T20:02:55.029Z,2.75
2019-04-26T20:05:23.275Z,2.02
2019-04-26T20:07:51.975Z,3.65
2019-04-26T20:10:20.394Z,5.03
2019-04-26T20:12:48.648Z,3.52
2019-04-26T20:15:25.801Z,3.25
2019-04-26T20:17:52.541Z,2.67
2019-04-26T20:20:21.395Z,3.87
2019-04-26T20:22:47.197Z,3.52
2019-04-26T20:25:15.463Z,3.12
2019-04-26T20:27:43.750Z,5.25
2019-04-26T20:30:13.676Z,4.00
2019-04-26T20:32:44.624Z,2.92
2019-04-26T20:35:19.707Z,3.00
2019-04-26T20:37:46.359Z,3.92
2019-04-26T20:40:20.168Z,3.42
2019-04-26T20:42:44.654Z,3.37
2019-04-26T20:45:16.605Z,3.75
2019-04-26T20:47:46.758Z,4.50
2019-04-26T20:50:13.915Z,3.72
2019-04-26T20:52:45.155Z,3.55
2019-04-26T20:55:13.790Z,6.75
2019-04-26T20:57:44.555Z,3.95
2019-04-26T21:00:12.647Z,4.75
2019-04-26T21:02:41.094Z,3.37
2019-04-26T21:05:11.251Z,3.70
2019-04-26T21:07:39.317Z,4.50
2019-04-26T21:10:07.661Z,4.80
2019-04-26T21:12:35.994Z,5.08
2019-04-26T21:15:04.963Z,5.05
2019-04-26T21:17:33.292Z,5.40
2019-04-26T21:20:02.131Z,8.25
2019-04-26T21:22:31.727Z,7.28
2019-04-26T21:25:04.894Z,6.95
2019-04-26T21:27:51.701Z,5.78
2019-04-26T21:30:24.358Z,7.45
2019-04-26T21:32:56.065Z,8.00
2019-04-26T21:35:28.868Z,5.80
2019-04-26T21:38:04.933Z,7.80
2019-04-26T21:40:37.479Z,7.10
2019-04-26T21:43:05.743Z,6.42
2019-04-26T21:45:34.516Z,7.85
2019-04-26T21:48:06.723Z,8.58
2019-04-26T21:50:35.754Z,10.23
2019-04-26T21:53:06.643Z,11.00
2019-04-26T21:55:38.419Z,15.08
2019-04-26T21:58:05.001Z,10.82
2019-04-26T22:00:49.649Z,11.18
2019-04-26T22:03:18.166Z,14.73
2019-04-26T22:05:49.816Z,21.80
2019-04-26T22:08:24.389Z,10.32
2019-04-26T22:10:48.370Z,8.78
2019-04-26T22:13:18.291Z,9.10
2019-04-26T22:16:07.871Z,8.40
2019-04-26T22:18:43.910Z,11.75
2019-04-26T22:21:21.629Z,7.28
2019-04-26T22:23:54.811Z,10.68
2019-04-26T22:26:23.699Z,8.00
2019-04-26T22:28:53.412Z,11.48
2019-04-26T22:31:23.611Z,13.20
2019-04-26T22:33:53.086Z,9.13
2019-04-26T22:36:23.262Z,8.60
2019-04-26T22:38:55.214Z,6.62
2019-04-26T22:41:24.375Z,11.63
2019-04-26T22:43:54.140Z,6.15
2019-04-26T22:46:47.306Z,4.97
2019-04-26T22:49:13.266Z,5.95
2019-04-26T22:51:43.437Z,5.72
2019-04-26T22:54:11.686Z,4.83
2019-04-26T22:56:39.912Z,4.17
2019-04-26T22:59:08.248Z,4.17
2019-04-26T23:01:39.088Z,5.08
2019-04-26T23:04:06.744Z,6.22
2019-04-26T23:06:35.008Z,7.80
2019-04-26T23:09:03.220Z,5.95
2019-04-26T23:11:33.300Z,5.35
2019-04-26T23:14:05.798Z,8.95
2019-04-26T23:16:44.715Z,7.55
2019-04-26T23:19:25.166Z,6.60
2019-04-26T23:22:00.384Z,7.55
2019-04-26T23:24:28.610Z,6.45
2019-04-26T23:26:56.886Z,27.65
2019-04-26T23:29:25.107Z,8.90
2019-04-26T23:31:55.366Z,14.23
2019-04-26T23:34:25.245Z,23.75
2019-04-26T23:36:54.048Z,9.78
2019-04-26T23:39:22.817Z,26.70
2019-04-26T23:41:53.920Z,7.25
2019-04-26T23:44:23.190Z,34.97
2019-04-26T23:46:56.618Z,17.65
2019-04-26T23:49:25.011Z,9.18
2019-04-26T23:51:53.230Z,23.07
2019-04-26T23:54:23.425Z,12.20
2019-04-26T23:56:55.633Z,7.72
2019-04-26T23:59:21.886Z,13.00
